Time;durP1;ratioP1;P1;durP2;ratioP2;P2;SDS_P1;SDS_P2;PMS_P1;PMS_P2;Temp;Humidity;BMP_temperature;BMP_pressure;BME280_temperature;BME280_humidity;BME280_pressure;Samples;Min_cycle;Max_cycle;Signal;HPM_P1;HPM_P2
2022/07/05 00:00:29;;;;;;;19.33;3.70;;;13.40;99.90;;;;;;5054043;28;20855;-84
2022/07/05 00:02:57;;;;;;;17.20;3.50;;;13.40;99.90;;;;;;5054006;28;20376;-84
2022/07/05 00:05:24;;;;;;;15.60;3.50;;;13.30;99.90;;;;;;5054004;28;20372;-84
2022/07/05 00:07:51;;;;;;;14.23;3.50;;;13.40;99.90;;;;;;5054065;28;20372;-84
2022/07/05 00:10:18;;;;;;;14.00;3.67;;;13.40;99.90;;;;;;5053998;28;20380;-84
2022/07/05 00:12:45;;;;;;;15.73;3.97;;;13.50;99.90;;;;;;5053858;28;20376;-84
2022/07/05 00:15:12;;;;;;;13.80;3.22;;;13.50;99.90;;;;;;5053993;28;20371;-84
2022/07/05 00:17:39;;;;;;;13.40;4.35;;;13.60;99.90;;;;;;5053731;28;20491;-84
2022/07/05 00:20:07;;;;;;;13.40;4.13;;;13.70;99.90;;;;;;5053896;28;20782;-84
2022/07/05 00:22:34;;;;;;;12.65;4.03;;;13.70;99.90;;;;;;5053779;28;20372;-84
2022/07/05 00:25:01;;;;;;;14.15;3.92;;;13.70;99.90;;;;;;5053648;28;20462;-84
2022/07/05 00:27:28;;;;;;;13.90;3.38;;;13.70;99.90;;;;;;5053691;28;20931;-83
2022/07/05 00:29:55;;;;;;;12.18;2.83;;;13.60;99.90;;;;;;5053723;28;20384;-84
2022/07/05 00:32:23;;;;;;;11.35;2.30;;;13.70;99.90;;;;;;5053640;28;20409;-84
2022/07/05 00:34:50;;;;;;;16.45;3.03;;;13.70;99.90;;;;;;5052300;28;20779;-84
2022/07/05 00:37:18;;;;;;;11.82;3.28;;;13.90;99.90;;;;;;5053585;28;20370;-84
2022/07/05 00:39:45;;;;;;;12.88;3.00;;;13.90;99.90;;;;;;5053486;28;20396;-84
2022/07/05 00:42:12;;;;;;;11.23;3.08;;;14.00;99.90;;;;;;5053406;28;20860;-84
2022/07/05 00:44:41;;;;;;;10.85;3.00;;;14.00;99.90;;;;;;5053429;28;20780;-84
2022/07/05 00:47:11;;;;;;;11.43;2.70;;;14.00;99.90;;;;;;5053400;28;20371;-84
2022/07/05 00:49:40;;;;;;;9.80;2.58;;;14.10;99.90;;;;;;5053604;28;20879;-84
2022/07/05 00:52:07;;;;;;;10.30;2.42;;;14.10;99.90;;;;;;5052865;28;20433;-83
2022/07/05 00:54:37;;;;;;;6.53;1.83;;;14.20;99.90;;;;;;5053127;28;20372;-85
2022/07/05 00:57:05;;;;;;;8.55;1.92;;;14.30;99.90;;;;;;5052884;28;20862;-84
2022/07/05 00:59:32;;;;;;;7.85;2.00;;;14.40;99.90;;;;;;5052881;28;20864;-84
2022/07/05 01:02:00;;;;;;;8.18;2.00;;;14.40;99.90;;;;;;5052990;28;20372;-83
2022/07/05 01:04:27;;;;;;;8.93;2.00;;;14.60;99.90;;;;;;5052908;28;20451;-83
2022/07/05 01:06:55;;;;;;;7.45;1.80;;;14.80;99.90;;;;;;5052837;28;20713;-83
2022/07/05 01:09:23;;;;;;;7.78;1.65;;;14.90;99.90;;;;;;5051846;28;20736;-83
2022/07/05 01:11:51;;;;;;;7.13;1.70;;;15.00;99.90;;;;;;5052727;28;20376;-84
2022/07/05 01:14:23;;;;;;;8.55;1.90;;;15.10;99.90;;;;;;5053221;28;20449;-84
2022/07/05 01:16:52;;;;;;;7.00;1.80;;;15.20;99.90;;;;;;5052659;28;20783;-84
2022/07/05 01:19:21;;;;;;;7.55;1.65;;;15.30;99.90;;;;;;5052445;28;20490;-84
2022/07/05 01:21:50;;;;;;;6.57;1.60;;;15.40;99.90;;;;;;5052590;28;20872;-84
2022/07/05 01:24:19;;;;;;;7.20;1.80;;;15.40;99.90;;;;;;5052546;28;20906;-84
2022/07/05 01:26:49;;;;;;;6.65;1.70;;;15.50;99.90;;;;;;5052665;28;20375;-84
2022/07/05 01:29:17;;;;;;;5.90;1.80;;;15.60;99.90;;;;;;5052953;28;20375;-84
2022/07/05 01:31:45;;;;;;;8.98;1.77;;;15.60;99.90;;;;;;5052906;28;20368;-84
2022/07/05 01:34:12;;;;;;;6.25;1.73;;;15.50;99.90;;;;;;5052299;28;20431;-84
2022/07/05 01:36:40;;;;;;;7.00;1.90;;;15.50;99.90;;;;;;5052610;28;20382;-84
2022/07/05 01:39:08;;;;;;;7.47;1.80;;;15.40;99.90;;;;;;5052226;28;20939;-84
2022/07/05 01:41:36;;;;;;;6.20;1.67;;;15.30;99.90;;;;;;5052345;28;20867;-83
2022/07/05 01:44:04;;;;;;;8.27;1.70;;;15.20;99.90;;;;;;5052327;28;20887;-84
2022/07/05 01:46:33;;;;;;;8.32;1.92;;;15.00;99.90;;;;;;5052554;28;20565;-84
2022/07/05 01:49:04;;;;;;;7.07;1.90;;;15.00;99.90;;;;;;5052955;28;20445;-84
2022/07/05 01:51:37;;;;;;;7.15;1.80;;;14.90;99.90;;;;;;5052223;28;20410;-84
2022/07/05 01:54:04;;;;;;;7.28;1.92;;;14.80;99.90;;;;;;5052552;28;20383;-83
2022/07/05 01:56:31;;;;;;;7.20;1.80;;;14.80;99.90;;;;;;5052299;28;20372;-83
2022/07/05 01:59:00;;;;;;;8.70;2.00;;;14.70;99.90;;;;;;5052063;28;20404;-84
2022/07/05 02:01:53;;;;;;;8.05;1.90;;;14.70;99.90;;;;;;5052132;28;20844;-83
2022/07/05 02:04:21;;;;;;;7.00;1.77;;;14.80;99.90;;;;;;5049227;28;20538;-83
2022/07/05 02:06:48;;;;;;;8.75;1.98;;;14.90;99.90;;;;;;5052051;28;20380;-84
2022/07/05 02:09:15;;;;;;;6.55;1.65;;;14.90;99.90;;;;;;5052368;28;20461;-82
2022/07/05 02:11:43;;;;;;;8.93;1.70;;;14.90;99.90;;;;;;5053288;28;20380;-82
2022/07/05 02:14:11;;;;;;;9.80;1.90;;;15.00;99.90;;;;;;5052962;28;20382;-81
2022/07/05 02:16:39;;;;;;;9.53;2.30;;;14.90;99.90;;;;;;5052249;28;20455;-83
2022/07/05 02:19:06;;;;;;;10.23;2.40;;;14.90;99.90;;;;;;5052255;28;20403;-83
2022/07/05 02:21:33;;;;;;;7.25;2.08;;;14.90;99.90;;;;;;5051954;28;20729;-84
2022/07/05 02:24:00;;;;;;;8.43;1.70;;;14.90;99.90;;;;;;5051925;28;20415;-84
2022/07/05 02:26:27;;;;;;;5.97;1.40;;;15.00;99.90;;;;;;5052094;28;20771;-83
2022/07/05 02:28:54;;;;;;;4.65;1.02;;;15.00;99.90;;;;;;5051926;28;20376;-83
2022/07/05 02:31:21;;;;;;;5.53;1.38;;;15.10;99.90;;;;;;5051798;28;20438;-83
2022/07/05 02:33:49;;;;;;;5.00;1.10;;;15.20;99.90;;;;;;5051641;28;20384;-83
2022/07/05 02:36:16;;;;;;;5.28;1.30;;;15.20;99.90;;;;;;5051773;28;20422;-83
2022/07/05 02:38:43;;;;;;;5.47;1.38;;;15.20;99.90;;;;;;5051662;28;20462;-83
2022/07/05 02:41:12;;;;;;;7.00;1.20;;;15.30;99.90;;;;;;5051835;28;20372;-83
2022/07/05 02:47:01;;;;;;;4.78;1.00;;;15.30;99.90;;;;;;5051886;28;20461;-83
2022/07/05 02:49:28;;;;;;;5.00;1.20;;;15.30;99.90;;;;;;5051659;28;20534;-83
2022/07/05 02:51:55;;;;;;;4.47;1.23;;;15.30;99.90;;;;;;5051564;28;20379;-83
2022/07/05 02:58:34;;;;;;;6.32;1.20;;;15.40;99.90;;;;;;5051678;28;20386;-83
2022/07/05 03:01:02;;;;;;;5.50;1.20;;;15.60;99.90;;;;;;5051543;28;20391;-83
2022/07/05 03:06:51;;;;;;;8.43;1.70;;;15.80;99.90;;;;;;5051540;28;20820;-83
2022/07/05 03:09:18;;;;;;;9.70;1.77;;;15.90;99.90;;;;;;5051454;28;20376;-83
2022/07/05 03:11:45;;;;;;;8.73;1.80;;;15.90;99.90;;;;;;5052130;28;20905;-84
2022/07/05 03:17:34;;;;;;;9.32;1.98;;;15.90;99.90;;;;;;5055324;28;20909;-83
2022/07/05 03:20:01;;;;;;;6.78;1.70;;;15.90;99.90;;;;;;5055008;28;20379;-84
2022/07/05 03:22:28;;;;;;;8.20;1.88;;;15.90;99.90;;;;;;5054942;28;20368;-83
2022/07/05 03:28:17;;;;;;;9.55;1.98;;;15.90;99.90;;;;;;5059725;28;20379;-83
2022/07/05 03:30:44;;;;;;;9.55;1.75;;;16.00;99.90;;;;;;5054798;28;20371;-84
2022/07/05 03:33:11;;;;;;;9.02;1.75;;;15.90;99.90;;;;;;5054450;28;20384;-84
2022/07/05 03:35:39;;;;;;;11.27;2.03;;;15.90;99.90;;;;;;5054690;28;20875;-83
2022/07/05 03:38:06;;;;;;;8.07;1.80;;;15.90;99.90;;;;;;5054533;28;20398;-84
2022/07/05 03:40:36;;;;;;;9.30;1.90;;;15.90;99.90;;;;;;5054468;28;20380;-83
2022/07/05 04:30:13;;;;;;;10.77;1.90;;;15.70;99.90;;;;;;5063158;22;20461;-83
2022/07/05 04:32:40;;;;;;;8.25;2.08;;;15.80;99.90;;;;;;5035067;28;20405;-84
2022/07/05 04:35:08;;;;;;;8.68;1.98;;;16.00;99.90;;;;;;5034457;28;20417;-85
2022/07/05 04:37:36;;;;;;;8.02;2.03;;;16.00;99.90;;;;;;5022552;28;20425;-83
2022/07/05 04:40:07;;;;;;;9.85;2.10;;;16.00;99.90;;;;;;5036458;28;20413;-83
2022/07/05 04:42:38;;;;;;;9.90;2.00;;;16.00;99.90;;;;;;5026278;28;20412;-82
2022/07/05 04:45:06;;;;;;;12.85;1.92;;;16.10;99.90;;;;;;5026031;28;20454;-83
2022/07/05 04:47:37;;;;;;;13.57;2.00;;;16.10;99.90;;;;;;5035887;28;20385;-84
2022/07/05 04:50:05;;;;;;;9.47;1.90;;;16.00;99.90;;;;;;5024107;28;20467;-83
2022/07/05 04:52:32;;;;;;;10.38;1.75;;;15.90;99.90;;;;;;5031366;28;20391;-84
2022/07/05 04:54:59;;;;;;;8.02;1.77;;;15.80;99.90;;;;;;5027274;28;20392;-85
2022/07/05 04:57:26;;;;;;;12.48;2.00;;;15.80;99.90;;;;;;5035118;28;20421;-84
2022/07/05 04:59:54;;;;;;;10.17;1.80;;;15.80;99.90;;;;;;5025115;28;20409;-83
2022/07/05 05:02:21;;;;;;;12.10;1.90;;;15.80;99.90;;;;;;5034406;28;20417;-81
2022/07/05 05:04:48;;;;;;;9.48;1.88;;;15.70;99.90;;;;;;5024638;28;20892;-83
2022/07/05 05:07:15;;;;;;;9.68;1.73;;;15.60;99.90;;;;;;5033271;28;20431;-81
2022/07/05 05:09:43;;;;;;;12.55;1.90;;;15.60;99.90;;;;;;5031593;28;20473;-80
2022/07/05 05:12:10;;;;;;;8.05;1.77;;;15.60;99.90;;;;;;5032984;28;20745;-80
2022/07/05 05:14:37;;;;;;;7.85;1.60;;;15.60;99.90;;;;;;5033336;28;20893;-82
2022/07/05 05:17:05;;;;;;;13.50;2.13;;;15.60;99.90;;;;;;5035349;28;20409;-82
2022/07/05 05:19:32;;;;;;;8.23;1.75;;;15.60;99.90;;;;;;5035696;28;20489;-84
2022/07/05 05:21:59;;;;;;;8.43;1.80;;;15.60;99.90;;;;;;5034888;28;20435;-84
2022/07/05 05:24:26;;;;;;;8.95;1.75;;;15.50;99.90;;;;;;5034932;28;20396;-83
2022/07/05 05:26:54;;;;;;;9.40;1.85;;;15.50;99.90;;;;;;5024872;28;20379;-82
2022/07/05 05:29:21;;;;;;;10.05;1.90;;;15.50;99.90;;;;;;5029897;28;20469;-83
2022/07/05 05:31:48;;;;;;;9.45;1.70;;;15.40;99.90;;;;;;5036707;28;20425;-83
2022/07/05 05:34:16;;;;;;;12.10;2.13;;;15.40;99.90;;;;;;5036591;28;20941;-82
2022/07/05 05:36:43;;;;;;;11.70;1.90;;;15.40;99.90;;;;;;5034489;28;20395;-81
2022/07/05 05:39:11;;;;;;;9.32;1.75;;;15.30;99.90;;;;;;5034767;28;20409;-81
2022/07/05 05:41:38;;;;;;;8.80;1.90;;;15.20;99.90;;;;;;5035308;28;20749;-83
2022/07/05 05:44:05;;;;;;;9.60;1.80;;;15.10;99.90;;;;;;5027146;28;20391;-83
2022/07/05 05:46:32;;;;;;;8.50;1.75;;;15.00;99.90;;;;;;5031452;28;20392;-83
2022/07/05 05:49:00;;;;;;;8.23;1.70;;;14.90;99.90;;;;;;5035523;28;20457;-84
2022/07/05 05:51:27;;;;;;;7.07;1.70;;;14.90;99.90;;;;;;5038010;28;20382;-88
2022/07/05 05:53:54;;;;;;;5.43;1.55;;;14.90;99.90;;;;;;5039220;28;20374;-86
2022/07/05 05:56:22;;;;;;;9.57;1.70;;;14.70;99.90;;;;;;5036008;28;20381;-81
2022/07/05 05:58:49;;;;;;;7.85;1.65;;;14.80;99.90;;;;;;5033365;28;20405;-87
2022/07/05 06:01:16;;;;;;;7.30;1.60;;;14.60;99.90;;;;;;5034953;28;20369;-85
2022/07/05 06:03:43;;;;;;;8.43;1.60;;;14.80;99.90;;;;;;5035433;28;20428;-84
2022/07/05 06:06:10;;;;;;;7.07;1.60;;;14.80;99.90;;;;;;5037101;28;20874;-88
2022/07/05 06:08:38;;;;;;;9.38;1.67;;;14.80;99.90;;;;;;5034140;28;20481;-85
2022/07/05 06:11:05;;;;;;;10.48;1.70;;;14.70;99.90;;;;;;5020508;28;20401;-85
2022/07/05 06:13:32;;;;;;;7.55;1.83;;;14.60;99.90;;;;;;5026876;28;20402;-86
2022/07/05 06:16:00;;;;;;;7.88;2.03;;;14.60;99.90;;;;;;5034121;28;20484;-87
2022/07/05 06:18:27;;;;;;;7.28;1.50;;;14.50;99.90;;;;;;5034250;28;21294;-82
2022/07/05 06:20:54;;;;;;;8.63;1.95;;;14.40;99.90;;;;;;5035505;28;20473;-83
2022/07/05 06:23:21;;;;;;;8.55;1.98;;;14.30;99.90;;;;;;5033501;28;20393;-83
2022/07/05 06:25:48;;;;;;;12.57;2.25;;;14.20;99.90;;;;;;5031232;28;20436;-82
2022/07/05 06:28:16;;;;;;;9.93;2.20;;;14.20;99.90;;;;;;5034206;28;20377;-82
2022/07/05 06:30:44;;;;;;;11.35;2.10;;;14.10;99.90;;;;;;5035609;28;20390;-86
2022/07/05 06:33:11;;;;;;;10.67;2.30;;;14.00;99.90;;;;;;5033627;28;20568;-86
2022/07/05 06:35:38;;;;;;;9.93;2.10;;;13.90;99.90;;;;;;5035331;28;20474;-87
2022/07/05 06:38:08;;;;;;;14.45;2.92;;;13.90;99.90;;;;;;5035504;28;20397;-87
2022/07/05 06:40:41;;;;;;;15.30;2.95;;;13.80;99.90;;;;;;5033854;28;20404;-86
2022/07/05 06:43:11;;;;;;;15.47;2.50;;;13.80;99.90;;;;;;5036381;28;20387;-83
2022/07/05 06:45:38;;;;;;;11.38;2.80;;;13.70;99.90;;;;;;5031789;28;20393;-87
2022/07/05 06:48:08;;;;;;;10.50;2.72;;;13.70;99.90;;;;;;5026811;28;20427;-80
2022/07/05 06:50:37;;;;;;;12.35;2.63;;;13.60;99.90;;;;;;5028592;28;20944;-84
2022/07/05 06:53:06;;;;;;;12.15;2.60;;;13.50;99.90;;;;;;5036516;28;20389;-86
2022/07/05 06:55:33;;;;;;;10.02;2.38;;;13.40;99.90;;;;;;5038755;28;20400;-83
2022/07/05 06:58:05;;;;;;;9.90;2.15;;;13.40;99.90;;;;;;5036249;28;20397;-84
2022/07/05 07:00:32;;;;;;;15.10;2.70;;;13.30;99.90;;;;;;5035386;28;20469;-85
2022/07/05 07:03:00;;;;;;;11.98;2.90;;;13.30;99.90;;;;;;5028936;28;20916;-84
2022/07/05 07:05:27;;;;;;;9.25;2.60;;;13.30;99.90;;;;;;5031600;28;20413;-80
2022/07/05 07:10:40;;;;;;;8.27;2.80;;;13.20;99.90;;;;;;5036279;28;21175;-86
2022/07/05 07:13:07;;;;;;;8.57;2.78;;;13.20;99.90;;;;;;5032297;28;20385;-82
2022/07/05 07:15:34;;;;;;;8.52;2.47;;;13.20;99.90;;;;;;5036129;28;20401;-83
2022/07/05 07:18:02;;;;;;;8.02;2.33;;;13.20;99.90;;;;;;5026198;28;20438;-87
2022/07/05 07:20:29;;;;;;;7.15;2.40;;;13.20;99.90;;;;;;5032334;28;20753;-80
2022/07/05 07:22:57;;;;;;;8.77;2.58;;;13.00;99.90;;;;;;5026801;28;20378;-83
2022/07/05 07:25:24;;;;;;;7.88;2.53;;;13.00;99.90;;;;;;5027221;28;20474;-86
2022/07/05 07:27:53;;;;;;;8.27;2.40;;;12.90;99.90;;;;;;5035475;28;20396;-81
2022/07/05 07:30:23;;;;;;;9.82;2.70;;;12.80;99.90;;;;;;5026042;28;20405;-85
2022/07/05 07:32:50;;;;;;;7.82;2.50;;;12.80;99.90;;;;;;5027346;28;20388;-84
2022/07/05 07:35:17;;;;;;;8.27;2.63;;;12.80;99.90;;;;;;5027061;28;20914;-86
2022/07/05 07:37:45;;;;;;;7.88;2.50;;;12.70;99.90;;;;;;5036711;28;20472;-85
2022/07/05 07:40:12;;;;;;;7.05;2.40;;;12.70;99.90;;;;;;5031494;28;20395;-84
2022/07/05 07:42:40;;;;;;;8.27;2.58;;;12.70;99.90;;;;;;5027440;28;20375;-85
2022/07/05 07:45:08;;;;;;;8.10;2.20;;;12.70;99.90;;;;;;5035141;28;20436;-86
2022/07/05 07:47:36;;;;;;;9.00;2.40;;;12.60;99.90;;;;;;5034273;28;20390;-89
2022/07/05 07:50:06;;;;;;;8.30;2.30;;;12.70;99.90;;;;;;5034832;28;20386;-84
2022/07/05 07:52:33;;;;;;;9.73;2.40;;;12.70;99.90;;;;;;5027109;28;20482;-84
2022/07/05 07:55:01;;;;;;;13.98;2.40;;;12.60;99.90;;;;;;5026127;28;20405;-84
2022/07/05 07:57:28;;;;;;;12.15;2.45;;;12.60;99.90;;;;;;5021284;28;20400;-83
2022/07/05 07:59:56;;;;;;;10.05;2.28;;;12.60;99.90;;;;;;5033228;28;20804;-86
2022/07/05 08:02:23;;;;;;;8.15;2.30;;;12.60;99.90;;;;;;5033556;28;20508;-85
2022/07/05 08:04:51;;;;;;;10.53;2.40;;;12.60;99.90;;;;;;5034998;28;20409;-84
2022/07/05 08:07:19;;;;;;;10.20;2.57;;;12.60;99.90;;;;;;5032413;28;20891;-85
2022/07/05 08:09:47;;;;;;;9.63;2.45;;;12.50;99.90;;;;;;5033493;28;20380;-84
2022/07/05 08:12:14;;;;;;;9.38;2.28;;;12.50;99.90;;;;;;5033586;28;20385;-84
2022/07/05 08:14:42;;;;;;;10.63;2.30;;;12.50;99.90;;;;;;5033087;28;20381;-79
2022/07/05 08:17:09;;;;;;;12.30;2.55;;;12.50;99.90;;;;;;5032800;28;20746;-82
2022/07/05 08:22:23;;;;;;;8.77;2.42;;;12.40;99.90;;;;;;5034033;28;20376;-84
2022/07/05 08:24:50;;;;;;;7.85;2.30;;;12.40;99.90;;;;;;5029267;28;20404;-81
2022/07/05 08:27:18;;;;;;;7.93;2.50;;;12.40;99.90;;;;;;5024794;28;20441;-85
2022/07/05 08:29:45;;;;;;;7.53;2.40;;;12.40;99.90;;;;;;5025860;28;20381;-85
2022/07/05 08:32:12;;;;;;;6.82;2.10;;;12.50;99.90;;;;;;5029078;28;20405;-86
2022/07/05 08:34:39;;;;;;;8.75;2.20;;;12.50;99.90;;;;;;5022408;28;20880;-84
2022/07/05 08:37:07;;;;;;;9.45;2.17;;;12.50;99.90;;;;;;5020891;28;20384;-86
2022/07/05 08:39:34;;;;;;;6.80;1.87;;;12.50;99.90;;;;;;5026564;28;20439;-86
2022/07/05 08:42:02;;;;;;;6.50;2.10;;;12.50;99.90;;;;;;5030158;28;20848;-84
2022/07/05 08:44:35;;;;;;;7.53;2.20;;;12.50;99.90;;;;;;5032057;28;20369;-86
2022/07/05 08:47:03;;;;;;;6.77;2.00;;;12.50;99.90;;;;;;5031057;28;20417;-83
2022/07/05 08:49:33;;;;;;;8.48;1.83;;;12.50;99.90;;;;;;5023901;28;20388;-85
2022/07/05 08:52:03;;;;;;;7.78;2.00;;;12.60;99.90;;;;;;5029425;28;20393;-86
2022/07/05 08:54:31;;;;;;;8.32;2.22;;;12.60;99.90;;;;;;5030975;28;20464;-84
2022/07/05 08:56:59;;;;;;;7.82;2.40;;;12.60;99.90;;;;;;5031286;28;20444;-84
2022/07/05 08:59:26;;;;;;;6.75;2.10;;;12.60;99.90;;;;;;5028073;28;20408;-84
2022/07/05 09:01:56;;;;;;;6.05;2.53;;;12.60;99.90;;;;;;5028915;28;20899;-84
2022/07/05 09:04:26;;;;;;;9.23;2.60;;;12.60;99.90;;;;;;5031067;28;20412;-83
2022/07/05 09:06:57;;;;;;;7.32;2.42;;;12.50;99.90;;;;;;5030949;28;20370;-85
2022/07/05 09:09:26;;;;;;;8.95;2.20;;;12.50;99.90;;;;;;5029862;28;20948;-83
2022/07/05 09:11:55;;;;;;;7.55;2.33;;;12.50;99.90;;;;;;5029767;28;20408;-86
2022/07/05 09:14:26;;;;;;;7.13;2.10;;;12.50;99.90;;;;;;5029545;28;20803;-85
2022/07/05 09:16:53;;;;;;;8.18;2.30;;;12.50;99.90;;;;;;5030824;28;20899;-83
2022/07/05 09:19:20;;;;;;;7.53;2.28;;;12.50;99.90;;;;;;5031078;28;20825;-82
2022/07/05 09:21:48;;;;;;;8.70;2.10;;;12.50;99.90;;;;;;5030874;28;20381;-85
2022/07/05 09:24:15;;;;;;;9.30;2.35;;;12.50;99.90;;;;;;5030195;28;20393;-86
2022/07/05 09:26:52;;;;;;;9.25;2.58;;;12.60;99.90;;;;;;5030547;28;20384;-84
2022/07/05 09:29:20;;;;;;;8.65;2.00;;;12.60;99.90;;;;;;5029498;28;20385;-85
2022/07/05 09:31:50;;;;;;;9.02;1.90;;;12.50;99.90;;;;;;5030016;28;20405;-88
2022/07/05 09:34:19;;;;;;;8.40;2.17;;;12.50;99.90;;;;;;5030150;28;20483;-84
2022/07/05 09:36:58;;;;;;;8.88;2.10;;;12.50;99.90;;;;;;5030866;28;20392;-86
2022/07/05 09:39:35;;;;;;;7.88;2.05;;;12.50;99.90;;;;;;5030494;28;20405;-85
2022/07/05 09:42:23;;;;;;;9.45;2.10;;;12.50;99.90;;;;;;5025141;28;20383;-85
2022/07/05 09:44:57;;;;;;;9.75;2.20;;;12.50;99.90;;;;;;5024016;28;20857;-85
2022/07/05 09:47:28;;;;;;;13.43;2.40;;;12.50;99.90;;;;;;5030409;28;20707;-83
2022/07/05 09:49:57;;;;;;;9.23;2.42;;;12.50;99.90;;;;;;5029274;28;20930;-82
2022/07/05 09:52:31;;;;;;;10.60;2.60;;;12.60;99.90;;;;;;5018817;28;20447;-85
2022/07/05 09:55:05;;;;;;;9.48;2.50;;;12.70;99.90;;;;;;5026318;28;20391;-84
2022/07/05 09:57:34;;;;;;;12.35;2.78;;;12.70;99.90;;;;;;5016493;28;20868;-85
2022/07/05 10:00:23;;;;;;;11.63;2.50;;;12.70;99.90;;;;;;5029972;28;20409;-87
2022/07/05 10:03:00;;;;;;;13.10;2.25;;;12.90;99.90;;;;;;5021743;28;20421;-85
2022/07/05 10:05:32;;;;;;;13.73;2.55;;;13.00;99.90;;;;;;5030426;28;20443;-86
2022/07/05 10:08:03;;;;;;;11.57;2.00;;;13.20;99.90;;;;;;5023323;28;20414;-87
2022/07/05 10:10:31;;;;;;;10.95;2.10;;;13.30;99.90;;;;;;5028972;28;20907;-88
2022/07/05 10:13:01;;;;;;;10.73;2.08;;;13.40;99.90;;;;;;5023642;28;20373;-85
2022/07/05 10:15:32;;;;;;;9.82;1.75;;;13.40;99.90;;;;;;5016385;28;20423;-82
2022/07/05 10:18:12;;;;;;;8.25;1.77;;;13.50;99.90;;;;;;5030208;28;21242;-84
2022/07/05 10:20:45;;;;;;;7.97;1.60;;;13.50;99.90;;;;;;5032339;28;20447;-86
2022/07/05 10:23:15;;;;;;;7.68;1.80;;;13.50;99.90;;;;;;5030696;28;20777;-83
2022/07/05 10:25:51;;;;;;;8.57;1.60;;;13.50;99.90;;;;;;5019536;28;20377;-83
2022/07/05 10:28:20;;;;;;;9.40;1.70;;;13.50;99.90;;;;;;5031827;28;20389;-84
2022/07/05 10:30:52;;;;;;;11.00;2.17;;;13.50;99.90;;;;;;5033250;28;20404;-86
2022/07/05 10:33:26;;;;;;;9.05;1.80;;;13.50;99.90;;;;;;5033196;28;20925;-83
2022/07/05 10:35:57;;;;;;;8.38;1.60;;;13.50;99.90;;;;;;5043758;28;20431;-86
2022/07/05 10:38:25;;;;;;;9.80;1.83;;;13.60;99.90;;;;;;5033943;28;20496;-85
2022/07/05 10:40:56;;;;;;;11.77;2.00;;;13.60;99.90;;;;;;5034085;28;20468;-84
2022/07/05 10:43:24;;;;;;;9.52;1.92;;;13.60;99.90;;;;;;5033621;28;20482;-85
2022/07/05 10:45:52;;;;;;;10.25;2.15;;;13.50;99.90;;;;;;5033763;28;20382;-84
2022/07/05 10:48:25;;;;;;;9.50;1.90;;;13.50;99.90;;;;;;5031942;28;20956;-86
2022/07/05 10:50:54;;;;;;;9.43;2.10;;;13.50;99.90;;;;;;5033238;28;20389;-84
2022/07/05 10:53:24;;;;;;;11.88;2.13;;;13.60;99.90;;;;;;5032164;28;20473;-84
2022/07/05 10:56:14;;;;;;;9.18;1.90;;;13.60;99.90;;;;;;5029786;28;21083;-84
2022/07/05 10:58:46;;;;;;;9.70;1.88;;;13.70;99.90;;;;;;5019594;28;20416;-85
2022/07/05 11:01:13;;;;;;;11.15;1.80;;;13.70;99.90;;;;;;5027940;28;20379;-84
2022/07/05 11:03:43;;;;;;;9.23;2.08;;;13.70;99.90;;;;;;5027115;28;20389;-84
2022/07/05 11:06:30;;;;;;;11.65;1.80;;;13.80;99.90;;;;;;5031499;28;20381;-85
2022/07/05 11:08:57;;;;;;;11.55;2.17;;;13.80;99.90;;;;;;5024700;28;20750;-85
2022/07/05 11:11:38;;;;;;;11.43;2.28;;;13.70;99.90;;;;;;5031810;28;20885;-86
2022/07/05 11:14:26;;;;;;;13.20;2.50;;;13.70;99.90;;;;;;5022080;28;20393;-84
2022/07/05 11:17:25;;;;;;;10.60;2.20;;;13.60;99.90;;;;;;4991922;28;20425;-85
2022/07/05 11:20:12;;;;;;;11.95;2.22;;;13.50;99.90;;;;;;4984246;28;20471;-85
2022/07/05 11:23:02;;;;;;;9.18;1.98;;;13.60;99.90;;;;;;4990663;28;20881;-85
2022/07/05 11:25:31;;;;;;;10.05;2.10;;;13.60;99.90;;;;;;4978956;28;20406;-85
2022/07/05 11:28:25;;;;;;;13.07;2.80;;;13.60;99.90;;;;;;4982579;28;20511;-84
2022/07/05 11:30:55;;;;;;;11.30;2.15;;;13.60;99.90;;;;;;4977613;28;20473;-85
2022/07/05 11:33:31;;;;;;;10.67;2.10;;;13.60;99.90;;;;;;4991981;28;20469;-84
2022/07/05 11:35:59;;;;;;;10.70;2.72;;;13.60;99.90;;;;;;4990689;28;20540;-84
2022/07/05 11:38:30;;;;;;;12.00;3.40;;;13.50;99.90;;;;;;4991248;28;20404;-85
2022/07/05 11:41:17;;;;;;;11.50;2.63;;;13.50;99.90;;;;;;4990828;28;20436;-85
2022/07/05 11:43:55;;;;;;;10.60;1.90;;;13.40;99.90;;;;;;4984169;28;20405;-80
2022/07/05 11:46:23;;;;;;;11.80;2.05;;;13.40;99.90;;;;;;4986101;28;20412;-85
2022/07/05 11:48:54;;;;;;;9.88;2.30;;;13.40;99.90;;;;;;5001160;28;20495;-85
2022/07/05 11:51:24;;;;;;;10.18;1.90;;;13.40;99.90;;;;;;4954689;28;20524;-85
2022/07/05 11:53:52;;;;;;;10.27;2.30;;;13.40;99.90;;;;;;4997125;28;20754;-84
2022/07/05 11:56:22;;;;;;;10.93;1.60;;;13.30;99.90;;;;;;5031811;28;20454;-85
2022/07/05 11:58:49;;;;;;;7.53;2.05;;;13.40;99.90;;;;;;5030622;28;20465;-85
2022/07/05 12:01:19;;;;;;;8.30;1.77;;;13.30;99.90;;;;;;5029726;28;20937;-84
2022/07/05 12:03:59;;;;;;;8.43;1.60;;;13.30;99.90;;;;;;5032770;28;20460;-84
2022/07/05 12:06:30;;;;;;;8.93;1.70;;;13.30;99.90;;;;;;5032299;28;20880;-85
2022/07/05 12:09:10;;;;;;;7.55;1.98;;;13.30;99.90;;;;;;5030641;28;20403;-84
2022/07/05 12:14:24;;;;;;;8.88;1.88;;;13.20;99.90;;;;;;5030330;28;20427;-85
2022/07/05 12:17:20;;;;;;;9.55;1.60;;;13.30;99.90;;;;;;5030661;28;20385;-85
2022/07/05 12:19:48;;;;;;;7.53;1.50;;;13.20;99.90;;;;;;5023167;28;20407;-84
2022/07/05 12:22:30;;;;;;;10.50;1.63;;;13.10;99.90;;;;;;5030984;28;20378;-86
2022/07/05 12:24:58;;;;;;;8.43;1.60;;;13.00;99.90;;;;;;5023636;28;20484;-85
2022/07/05 12:27:29;;;;;;;8.13;1.52;;;12.90;99.90;;;;;;5031165;28;20381;-84
2022/07/05 12:29:57;;;;;;;5.75;1.40;;;12.90;99.90;;;;;;5021173;28;20391;-86
2022/07/05 12:32:24;;;;;;;8.68;1.70;;;12.80;99.90;;;;;;5031164;28;20407;-85
2022/07/05 12:34:52;;;;;;;7.38;1.80;;;12.80;99.90;;;;;;5031464;28;20394;-85
2022/07/05 12:37:27;;;;;;;7.97;1.90;;;12.80;99.90;;;;;;5020734;28;20386;-85
2022/07/05 12:40:08;;;;;;;7.63;2.30;;;12.60;99.90;;;;;;5029147;28;21286;-87
2022/07/05 12:42:39;;;;;;;6.47;1.95;;;11.60;99.90;;;;;;5016384;28;20392;-85
2022/07/05 12:45:20;;;;;;;8.45;1.95;;;12.60;99.90;;;;;;5029515;28;20481;-85
2022/07/05 12:47:56;;;;;;;8.27;2.30;;;12.60;99.90;;;;;;5027412;28;20466;-85
2022/07/05 12:50:33;;;;;;;8.25;2.30;;;12.50;99.90;;;;;;5027372;28;20917;-86
2022/07/05 12:58:58;;;;;;;9.50;1.90;;;12.50;99.90;;;;;;5027523;28;20932;-84
2022/07/05 13:01:31;;;;;;;10.32;2.22;;;12.40;99.90;;;;;;5019655;28;20391;-85
2022/07/05 13:04:12;;;;;;;10.45;2.17;;;12.40;99.90;;;;;;5030700;28;20385;-84
2022/07/05 13:06:50;;;;;;;7.77;2.10;;;12.40;99.90;;;;;;5031194;28;20388;-84
2022/07/05 13:09:31;;;;;;;7.32;1.92;;;12.50;99.90;;;;;;5022045;28;20428;-84
2022/07/05 13:12:24;;;;;;;8.73;1.98;;;12.40;99.90;;;;;;5029783;28;20735;-85
2022/07/05 13:14:58;;;;;;;9.47;2.07;;;12.40;99.90;;;;;;5019825;28;20489;-84
2022/07/05 13:17:26;;;;;;;11.45;2.20;;;12.40;99.90;;;;;;5028062;28;20887;-83
2022/07/05 13:19:53;;;;;;;7.85;2.22;;;12.40;99.90;;;;;;5019517;28;20409;-85
2022/07/05 13:22:20;;;;;;;8.27;2.05;;;12.40;99.90;;;;;;5029684;28;20493;-84
2022/07/05 13:24:48;;;;;;;8.45;2.00;;;12.40;99.90;;;;;;5023397;28;20392;-84
2022/07/05 13:27:15;;;;;;;8.13;2.22;;;12.40;99.90;;;;;;5029745;28;20377;-84
2022/07/05 13:29:43;;;;;;;7.72;2.08;;;12.40;99.90;;;;;;5029896;28;20858;-84
2022/07/05 13:32:10;;;;;;;9.43;1.90;;;12.40;99.90;;;;;;5030753;28;20397;-85
2022/07/05 13:34:37;;;;;;;9.38;2.30;;;12.40;99.90;;;;;;5014901;28;20391;-85
2022/07/05 13:37:04;;;;;;;7.82;2.05;;;12.40;99.90;;;;;;5025692;28;20476;-81
2022/07/05 13:39:31;;;;;;;10.90;2.00;;;12.40;99.90;;;;;;5028208;28;20495;-84
2022/07/05 13:41:59;;;;;;;10.98;2.35;;;12.40;99.90;;;;;;5017802;28;20392;-84
2022/07/05 13:44:26;;;;;;;11.80;2.27;;;12.40;99.90;;;;;;5023650;28;20439;-84
2022/07/05 13:46:54;;;;;;;10.23;2.20;;;12.40;99.90;;;;;;5026965;28;20750;-84
2022/07/05 13:49:22;;;;;;;10.10;2.05;;;12.40;99.90;;;;;;5025640;28;20403;-83
2022/07/05 13:51:50;;;;;;;8.23;2.10;;;12.40;99.90;;;;;;5029043;28;20384;-83
2022/07/05 13:54:17;;;;;;;10.05;2.20;;;12.30;99.90;;;;;;5018572;28;20869;-84
2022/07/05 13:56:44;;;;;;;11.18;2.20;;;12.30;99.90;;;;;;5030115;28;20397;-83
2022/07/05 13:59:12;;;;;;;9.07;2.30;;;12.40;99.90;;;;;;5029472;28;20445;-83
2022/07/05 14:01:39;;;;;;;7.80;2.00;;;12.40;99.90;;;;;;5030613;28;20366;-83
2022/07/05 14:04:06;;;;;;;9.03;2.30;;;12.30;99.90;;;;;;5030334;28;20873;-84
2022/07/05 14:06:34;;;;;;;8.32;2.00;;;12.30;99.90;;;;;;5030511;28;20877;-84
2022/07/05 14:09:02;;;;;;;8.47;2.00;;;12.30;99.90;;;;;;5030513;28;20502;-84
2022/07/05 14:11:30;;;;;;;9.23;2.15;;;12.30;99.90;;;;;;5030249;28;20393;-84
2022/07/05 14:13:57;;;;;;;9.88;2.03;;;12.30;99.90;;;;;;5028564;28;20395;-84